Flight Track Log - Related Links

Times and Time Zones

All times are in EST time to prevent confusion due to time zone crossing. See the EJA929 flight status page for this flight to view local times or setup timezone preferences in your user account.

Time Position Orientation Groundspeed Altitude Reporting Facility
EST Latitude Longitude Course Direction KTS MPH feet Rate Location/Type
Mon 12:17:50 PM 42.3500 -71.0167 270° West 150 173 800  Level KA90
Mon 12:18:20 PM 42.3500 -71.0500 270° West 168 193 2,800 4,114 Climbing KA90
Mon 12:20:45 PM 42.2525 -71.1989 229° Southwest 227 261 12,800 3,641 Climbing Boston Center
Mon 12:21:46 PM 42.2150 -71.2653 233° Southwest 229 264 15,300 2,516 Climbing Boston Center
Mon 12:22:49 PM 42.1703 -71.3408 231° Southwest 265 305 18,000 2,226 Climbing Boston Center
Mon 12:23:50 PM 42.1419 -71.4225 245° Southwest 274 315 19,900 2,132 Climbing Boston Center
Mon 12:24:50 PM 42.0936 -71.5450 242° Southwest 295 339 22,300 2,231 Climbing Boston Center
Mon 12:25:51 PM 42.0525 -71.6536 243° Southwest 309 356 24,400 2,164 Climbing Boston Center
Mon 12:26:52 PM 42.0083 -71.7658 242° Southwest 323 372 26,700 2,066 Climbing Boston Center
Mon 12:27:53 PM 41.9661 -71.8794 243° Southwest 333 383 28,600 1,872 Climbing Boston Center
Mon 12:28:57 PM 41.9206 -71.9953 242° Southwest 345 397 30,600 1,935 Climbing Boston Center
Mon 12:29:57 PM 41.8725 -72.1172 242° Southwest 360 414 32,600 1,686 Climbing Boston Center
Mon 12:30:58 PM 41.8228 -72.2419 242° Southwest 374 430 34,000 694 Climbing Boston Center
Mon 12:31:58 PM 41.7711 -72.3700 242° Southwest 385 443 34,000  Level Boston Center
Mon 12:32:58 PM 41.7211 -72.4967 242° Southwest 386 444 34,000  Level Boston Center
Mon 12:34:01 PM 41.6706 -72.6228 242° Southwest 384 442 34,000  Level Boston Center
Mon 12:35:02 PM 41.6194 -72.7503 242° Southwest 388 447 34,000  Level Boston Center
Mon 12:36:03 PM 41.5675 -72.8806 242° Southwest 395 455 34,000  Level Boston Center
Mon 12:37:03 PM 41.5097 -73.0242 242° Southwest 391 450 34,000  Level Boston Center
Mon 12:38:06 PM 41.4583 -73.1497 241° Southwest 389 448 34,000  Level Boston Center
Mon 12:39:07 PM 41.4069 -73.2764 242° Southwest 389 448 34,000  Level Boston Center
Mon 12:40:08 PM 41.3556 -73.4011 241° Southwest 388 447 34,000  Level Boston Center
Mon 12:41:08 PM 41.3033 -73.5261 241° Southwest 389 448 34,000  Level Boston Center
Mon 12:42:09 PM 41.2447 -73.6450 237° Southwest 387 445 34,000  Level Boston Center
Mon 12:42:41 PM 41.2042 -73.7136 232° Southwest 389 448 34,000  Level New York Center
Mon 12:43:41 PM 41.1386 -73.8264 232° Southwest 389 448 34,000  Level New York Center
Mon 12:44:41 PM 41.0714 -73.9361 231° Southwest 394 453 34,000  Level New York Center
Mon 12:45:41 PM 41.0058 -74.0486 232° Southwest 394 453 34,000  Level New York Center
Mon 12:46:41 PM 40.9381 -74.1606 231° Southwest 394 453 34,000  Level New York Center
Mon 12:47:41 PM 40.8658 -74.2750 230° Southwest 399 459 34,000  Level New York Center
Mon 12:48:41 PM 40.7933 -74.3975 232° Southwest 399 459 34,000  Level New York Center
Mon 12:49:41 PM 40.7233 -74.5086 230° Southwest 399 459 34,000  Level New York Center
Mon 12:50:41 PM 40.6572 -74.6228 233° Southwest 399 459 34,000  Level New York Center
Mon 12:51:41 PM 40.5956 -74.7231 231° Southwest 404 465 34,000  Level New York Center
Mon 12:52:41 PM 40.5144 -74.8411 228° Southwest 404 465 34,000  Level New York Center
Mon 12:53:41 PM 40.4442 -74.9408 227° Southwest 410 472 34,000  Level New York Center
Mon 12:54:41 PM 40.3608 -75.0583 227° Southwest 404 465 34,000  Level New York Center
Mon 12:55:41 PM 40.2839 -75.1650 227° Southwest 409 471 34,000  Level New York Center
Mon 12:56:41 PM 40.2028 -75.2742 226° Southwest 416 479 34,000  Level New York Center
Mon 12:57:41 PM 40.1256 -75.3831 227° Southwest 416 479 34,000  Level New York Center
Mon 12:58:41 PM 40.0550 -75.4814 227° Southwest 416 479 34,000  Level New York Center
Mon 12:59:41 PM 39.9708 -75.6003 227° Southwest 411 473 34,000  Level New York Center
Mon 01:00:41 PM 39.9022 -75.6958 227° Southwest 411 473 34,000  Level New York Center
Mon 01:01:41 PM 39.8239 -75.8228 231° Southwest 411 473 34,000  Level New York Center
Mon 01:02:41 PM 39.7633 -75.9211 231° Southwest 406 467 34,000  Level New York Center
Mon 01:04:18 PM 39.6417 -76.1169 231° Southwest 404 465 34,000  Level Washington Center
Mon 01:05:17 PM 39.5661 -76.2269 228° Southwest 410 472 34,000  Level Washington Center
Mon 01:06:17 PM 39.4925 -76.3417 230° Southwest 415 478 34,000  Level Washington Center
Mon 01:07:17 PM 39.4208 -76.4539 230° Southwest 415 478 34,000  Level Washington Center
Mon 01:08:18 PM 39.3472 -76.5658 230° Southwest 415 478 34,000  Level Washington Center
Mon 01:09:19 PM 39.2775 -76.6800 232° Southwest 415 478 34,000  Level Washington Center
Mon 01:10:19 PM 39.2056 -76.7889 230° Southwest 415 478 34,000  Level Washington Center
Mon 01:11:17 PM 39.1356 -76.9028 232° Southwest 410 472 34,000  Level Washington Center
Mon 01:12:18 PM 39.0614 -77.0139 229° Southwest 410 472 34,000  Level Washington Center
Mon 01:13:19 PM 38.9767 -77.1136 222° Southwest 410 472 34,000  Level Washington Center
Mon 01:14:19 PM 38.8878 -77.2106 220° Southwest 410 472 34,000 -50 Level Washington Center
Mon 01:15:18 PM 38.7989 -77.3069 220° Southwest 420 483 33,900 -1,008 Descending Washington Center
Mon 01:16:18 PM 38.7058 -77.4114 221° Southwest 432 497 32,000 -942 Descending Washington Center
Mon 01:17:19 PM 38.6144 -77.5100 220° Southwest 437 503 32,000  Level Washington Center
Mon 01:18:19 PM 38.5339 -77.6036 222° Southwest 437 503 32,000  Level Washington Center
Mon 01:19:19 PM 38.4506 -77.7125 226° Southwest 432 497 32,000  Level Washington Center
Mon 01:20:17 PM 38.3694 -77.8189 226° Southwest 432 497 32,000  Level Washington Center
Mon 01:21:18 PM 38.2883 -77.9250 226° Southwest 427 491 32,000  Level Washington Center
Mon 01:22:18 PM 38.2047 -78.0333 226° Southwest 422 486 32,000  Level Washington Center
Mon 01:23:19 PM 38.1233 -78.1389 226° Southwest 422 486 32,000  Level Washington Center
Mon 01:24:17 PM 38.0417 -78.2442 225° Southwest 422 486 32,000 -454 Level Washington Center
Mon 01:25:18 PM 37.9622 -78.3519 227° Southwest 422 486 31,100 -1,180 Descending Washington Center
Mon 01:26:19 PM 37.8742 -78.4592 224° Southwest 428 493 29,600 -1,563 Descending Washington Center
Mon 01:27:17 PM 37.7794 -78.5792 225° Southwest 434 499 28,000 -1,311 Descending Washington Center
Mon 01:28:18 PM 37.6933 -78.6886 225° Southwest 434 499 27,000 -496 Descending Washington Center
Mon 01:29:18 PM 37.6114 -78.7903 225° Southwest 434 499 27,000 -500 Level Washington Center
Mon 01:30:18 PM 37.5314 -78.8942 226° Southwest 425 489 26,000 -1,587 Descending Washington Center
Mon 01:31:19 PM 37.4472 -78.9953 224° Southwest 415 478 23,800 -1,983 Descending Washington Center
Mon 01:32:19 PM 37.3650 -79.0986 225° Southwest 420 483 22,000 -915 Descending Washington Center
Mon 01:33:17 PM 37.2914 -79.1892 224° Southwest 420 483 22,000  Level Washington Center
Mon 01:34:18 PM 37.2150 -79.2925 227° Southwest 420 483 22,000  Level Washington Center
Mon 01:35:17 PM 37.1408 -79.4011 229° Southwest 414 476 22,000  Level Washington Center
Mon 01:36:18 PM 37.0706 -79.5094 231° Southwest 409 471 22,000 -942 Level Washington Center
Mon 01:37:18 PM 36.9961 -79.6175 229° Southwest 409 471 20,100 -2,033 Descending Washington Center
Mon 01:38:19 PM 36.9256 -79.7256 231° Southwest 409 471 17,900 -2,164 Descending Washington Center
Mon 01:40:00 PM 36.8016 -79.8777 225° Southwest  Level FlightAware Approximate
Mon 01:47:00 PM 36.1383 -79.9833 180° South  Level FlightAware Approximate
Mon 01:48:00 PM 36.1013 -79.9411 180° South  Level Estimated
Mon 01:49:00 PM 36.1000 -79.9333 28° Northeast  Level FlightAware Approximate
Mon 01:50:00 PM 36.1013 -79.9411 28° Northeast  Level Estimated
Mon 01:51:00 PM 36.1000 -79.9333 28° Northeast  Level FlightAware Approximate
Mon 01:52:00 PM 36.1013 -79.9411 28° Northeast  Level Estimated
Mon 01:53:00 PM 36.1000 -79.9333 28° Northeast  Level FlightAware Approximate
Mon 01:54:00 PM 36.1013 -79.9411 28° Northeast  Level Estimated
Mon 01:55:00 PM 36.1000 -79.9333 28° Northeast  Level FlightAware Approximate

Login

Don't have an account? Register now (free) for customized features, flight alerts, and more!